sensor_id;sensor_type;location;lat;lon;timestamp;pressure;altitude;pressure_sealevel;temperature;humidity
32298;BME280;18782;48.984;8.548;2022-09-09T00:01:23;99577.84;;;15.53;88.59
32298;BME280;18782;48.984;8.548;2022-09-09T00:04:00;99587.34;;;15.54;88.63
32298;BME280;18782;48.984;8.548;2022-09-09T00:06:31;99588.19;;;15.59;87.93
32298;BME280;18782;48.984;8.548;2022-09-09T00:09:06;99576.09;;;15.58;88.20
32298;BME280;18782;48.984;8.548;2022-09-09T00:11:43;99570.06;;;15.56;88.64
32298;BME280;18782;48.984;8.548;2022-09-09T00:14:18;99573.50;;;15.55;88.85
32298;BME280;18782;48.984;8.548;2022-09-09T00:16:52;99572.66;;;15.56;88.90
32298;BME280;18782;48.984;8.548;2022-09-09T00:19:27;99576.97;;;15.54;88.50
32298;BME280;18782;48.984;8.548;2022-09-09T00:22:05;99574.38;;;15.48;89.51
32298;BME280;18782;48.984;8.548;2022-09-09T00:24:39;99570.06;;;15.48;89.64
32298;BME280;18782;48.984;8.548;2022-09-09T00:27:16;99565.72;;;15.49;89.69
32298;BME280;18782;48.984;8.548;2022-09-09T00:29:47;99560.56;;;15.52;89.24
32298;BME280;18782;48.984;8.548;2022-09-09T00:32:20;99581.31;;;15.52;89.21
32298;BME280;18782;48.984;8.548;2022-09-09T00:34:53;99577.84;;;15.53;89.49
32298;BME280;18782;48.984;8.548;2022-09-09T00:37:24;99572.66;;;15.53;89.63
32298;BME280;18782;48.984;8.548;2022-09-09T00:39:54;99561.41;;;15.54;90.11
32298;BME280;18782;48.984;8.548;2022-09-09T00:42:26;99566.59;;;15.52;89.65
32298;BME280;18782;48.984;8.548;2022-09-09T00:45:02;99564.00;;;15.54;89.31
32298;BME280;18782;48.984;8.548;2022-09-09T00:47:40;99564.88;;;15.51;89.26
32298;BME280;18782;48.984;8.548;2022-09-09T00:50:32;99563.13;;;15.55;89.53
32298;BME280;18782;48.984;8.548;2022-09-09T00:53:16;99561.41;;;15.54;90.01
32298;BME280;18782;48.984;8.548;2022-09-09T00:55:53;99560.53;;;15.55;90.00
32298;BME280;18782;48.984;8.548;2022-09-09T00:58:22;99567.47;;;15.53;90.85
32298;BME280;18782;48.984;8.548;2022-09-09T01:00:51;99567.47;;;15.53;90.84
32298;BME280;18782;48.984;8.548;2022-09-09T01:03:33;99572.63;;;15.54;90.89
32298;BME280;18782;48.984;8.548;2022-09-09T01:06:12;99579.56;;;15.54;90.96
32298;BME280;18782;48.984;8.548;2022-09-09T01:09:02;99575.25;;;15.50;90.57
32298;BME280;18782;48.984;8.548;2022-09-09T01:11:36;99584.75;;;15.48;90.92
32298;BME280;18782;48.984;8.548;2022-09-09T01:14:14;99583.03;;;15.47;91.25
32298;BME280;18782;48.984;8.548;2022-09-09T01:16:46;99591.69;;;15.49;91.05
32298;BME280;18782;48.984;8.548;2022-09-09T01:19:20;99593.41;;;15.45;91.03
32298;BME280;18782;48.984;8.548;2022-09-09T01:22:01;99600.34;;;15.48;91.50
32298;BME280;18782;48.984;8.548;2022-09-09T01:24:38;99609.84;;;15.46;91.93
32298;BME280;18782;48.984;8.548;2022-09-09T01:27:24;99598.59;;;15.50;91.35
32298;BME280;18782;48.984;8.548;2022-09-09T01:29:53;99612.41;;;15.55;89.24
32298;BME280;18782;48.984;8.548;2022-09-09T01:32:41;99610.72;;;15.77;87.71
32298;BME280;18782;48.984;8.548;2022-09-09T01:35:15;99632.25;;;16.14;82.26
32298;BME280;18782;48.984;8.548;2022-09-09T01:37:45;99625.06;;;16.74;80.62
32298;BME280;18782;48.984;8.548;2022-09-09T01:40:13;99621.41;;;17.04;79.75
32298;BME280;18782;48.984;8.548;2022-09-09T01:42:42;99612.56;;;17.28;78.27
32298;BME280;18782;48.984;8.548;2022-09-09T01:45:10;99615.13;;;17.34;77.31
32298;BME280;18782;48.984;8.548;2022-09-09T01:47:38;99622.84;;;17.42;78.20
32298;BME280;18782;48.984;8.548;2022-09-09T01:50:17;99615.03;;;17.43;77.43
32298;BME280;18782;48.984;8.548;2022-09-09T01:52:46;99622.81;;;17.46;78.28
32298;BME280;18782;48.984;8.548;2022-09-09T01:55:23;99609.78;;;17.50;78.00
32298;BME280;18782;48.984;8.548;2022-09-09T01:58:08;99611.53;;;17.46;78.56
32298;BME280;18782;48.984;8.548;2022-09-09T02:00:49;99612.53;;;17.31;79.73
32298;BME280;18782;48.984;8.548;2022-09-09T02:03:23;99605.59;;;17.32;78.55
32298;BME280;18782;48.984;8.548;2022-09-09T02:06:16;99582.19;;;17.33;78.79
32298;BME280;18782;48.984;8.548;2022-09-09T02:08:50;99583.84;;;17.37;79.16
32298;BME280;18782;48.984;8.548;2022-09-09T02:11:22;99583.03;;;17.34;80.20
32298;BME280;18782;48.984;8.548;2022-09-09T02:14:02;99580.53;;;17.23;79.96
32298;BME280;18782;48.984;8.548;2022-09-09T02:16:37;99584.03;;;17.16;80.47
32298;BME280;18782;48.984;8.548;2022-09-09T02:19:10;99575.41;;;17.11;80.93
32298;BME280;18782;48.984;8.548;2022-09-09T02:21:56;99565.97;;;17.01;80.59
32298;BME280;18782;48.984;8.548;2022-09-09T02:24:26;99572.06;;;16.98;80.64
32298;BME280;18782;48.984;8.548;2022-09-09T02:27:08;99556.47;;;16.97;80.94
32298;BME280;18782;48.984;8.548;2022-09-09T02:29:39;99565.13;;;16.95;81.31
32298;BME280;18782;48.984;8.548;2022-09-09T02:32:13;99565.13;;;16.95;81.97
32298;BME280;18782;48.984;8.548;2022-09-09T02:34:43;99565.16;;;16.92;81.56
32298;BME280;18782;48.984;8.548;2022-09-09T02:37:13;99560.88;;;16.87;82.22
32298;BME280;18782;48.984;8.548;2022-09-09T02:39:47;99554.81;;;16.86;82.33
32298;BME280;18782;48.984;8.548;2022-09-09T02:42:18;99549.63;;;16.83;82.62
32298;BME280;18782;48.984;8.548;2022-09-09T02:44:48;99544.44;;;16.80;83.03
32298;BME280;18782;48.984;8.548;2022-09-09T02:47:24;99542.72;;;16.82;84.06
32298;BME280;18782;48.984;8.548;2022-09-09T02:50:04;99542.69;;;16.81;84.17
32298;BME280;18782;48.984;8.548;2022-09-09T02:52:40;99539.28;;;16.77;83.75
32298;BME280;18782;48.984;8.548;2022-09-09T02:55:16;99545.38;;;16.73;84.18
32298;BME280;18782;48.984;8.548;2022-09-09T02:57:47;99548.88;;;16.66;84.65
32298;BME280;18782;48.984;8.548;2022-09-09T03:00:24;99551.47;;;16.63;83.59
32298;BME280;18782;48.984;8.548;2022-09-09T03:02:54;99553.22;;;16.58;84.30
32298;BME280;18782;48.984;8.548;2022-09-09T03:05:22;99550.66;;;16.53;84.80
32298;BME280;18782;48.984;8.548;2022-09-09T03:07:49;99557.56;;;16.54;85.86
32298;BME280;18782;48.984;8.548;2022-09-09T03:10:19;99551.56;;;16.51;85.08
32298;BME280;18782;48.984;8.548;2022-09-09T03:12:46;99559.34;;;16.51;84.69
32298;BME280;18782;48.984;8.548;2022-09-09T03:15:16;99551.56;;;16.51;85.28
32298;BME280;18782;48.984;8.548;2022-09-09T03:17:45;99551.53;;;16.49;85.66
32298;BME280;18782;48.984;8.548;2022-09-09T03:20:13;99551.59;;;16.44;86.24
32298;BME280;18782;48.984;8.548;2022-09-09T03:22:41;99561.16;;;16.35;87.42
32298;BME280;18782;48.984;8.548;2022-09-09T03:25:11;99558.59;;;16.30;87.88
32298;BME280;18782;48.984;8.548;2022-09-09T03:27:38;99562.06;;;16.23;88.71
32298;BME280;18782;48.984;8.548;2022-09-09T03:30:07;99560.38;;;16.19;88.75
32298;BME280;18782;48.984;8.548;2022-09-09T03:32:35;99558.66;;;16.15;89.00
32298;BME280;18782;48.984;8.548;2022-09-09T03:35:05;99562.13;;;16.11;89.50
32298;BME280;18782;48.984;8.548;2022-09-09T03:37:32;99570.81;;;16.04;89.51
32298;BME280;18782;48.984;8.548;2022-09-09T03:40:00;99576.91;;;15.98;89.87
32298;BME280;18782;48.984;8.548;2022-09-09T03:42:28;99566.53;;;15.92;90.33
32298;BME280;18782;48.984;8.548;2022-09-09T03:44:57;99565.69;;;15.88;90.80
32298;BME280;18782;48.984;8.548;2022-09-09T03:47:26;99563.97;;;15.84;91.15
32298;BME280;18782;48.984;8.548;2022-09-09T03:50:00;99560.53;;;15.79;91.31
32298;BME280;18782;48.984;8.548;2022-09-09T03:52:29;99562.25;;;15.74;91.41
32298;BME280;18782;48.984;8.548;2022-09-09T03:54:58;99561.38;;;15.75;91.76
32298;BME280;18782;48.984;8.548;2022-09-09T03:57:25;99561.41;;;15.74;92.11
32298;BME280;18782;48.984;8.548;2022-09-09T03:59:53;99563.13;;;15.73;91.61
32298;BME280;18782;48.984;8.548;2022-09-09T04:02:20;99558.84;;;15.66;91.69
32298;BME280;18782;48.984;8.548;2022-09-09T04:04:48;99558.81;;;15.57;92.04
32298;BME280;18782;48.984;8.548;2022-09-09T04:07:16;99561.41;;;15.48;92.75
32298;BME280;18782;48.984;8.548;2022-09-09T04:09:45;99569.19;;;15.48;92.96
32298;BME280;18782;48.984;8.548;2022-09-09T04:12:13;99565.75;;;15.46;93.51
32298;BME280;18782;48.984;8.548;2022-09-09T04:14:42;99567.47;;;15.47;93.31
32298;BME280;18782;48.984;8.548;2022-09-09T04:17:10;99578.72;;;15.43;92.97
32298;BME280;18782;48.984;8.548;2022-09-09T04:19:38;99575.25;;;15.42;93.38
32298;BME280;18782;48.984;8.548;2022-09-09T04:22:07;99577.84;;;15.44;93.32
32298;BME280;18782;48.984;8.548;2022-09-09T04:24:34;99576.13;;;15.46;93.31
32298;BME280;18782;48.984;8.548;2022-09-09T04:27:04;99576.13;;;15.49;92.73
32298;BME280;18782;48.984;8.548;2022-09-09T04:29:33;99582.19;;;15.51;92.56
32298;BME280;18782;48.984;8.548;2022-09-09T04:32:01;99589.97;;;15.51;92.97
32298;BME280;18782;48.984;8.548;2022-09-09T04:34:29;99595.13;;;15.54;92.96
32298;BME280;18782;48.984;8.548;2022-09-09T04:36:57;99595.13;;;15.54;92.80
32298;BME280;18782;48.984;8.548;2022-09-09T04:39:26;99595.16;;;15.63;92.28
32298;BME280;18782;48.984;8.548;2022-09-09T04:41:54;99590.78;;;15.60;92.36
32298;BME280;18782;48.984;8.548;2022-09-09T04:44:23;99603.78;;;15.56;92.24
32298;BME280;18782;48.984;8.548;2022-09-09T04:46:51;99595.13;;;15.54;92.09
32298;BME280;18782;48.984;8.548;2022-09-09T04:49:19;99596.88;;;15.52;92.24
32298;BME280;18782;48.984;8.548;2022-09-09T04:51:48;99608.97;;;15.47;92.68
32298;BME280;18782;48.984;8.548;2022-09-09T04:54:17;99599.47;;;15.41;92.79
32298;BME280;18782;48.984;8.548;2022-09-09T04:56:46;99609.84;;;15.41;93.06
32298;BME280;18782;48.984;8.548;2022-09-09T04:59:13;99606.38;;;15.42;92.84
32298;BME280;18782;48.984;8.548;2022-09-09T05:01:46;99603.78;;;15.44;92.21
32298;BME280;18782;48.984;8.548;2022-09-09T05:04:14;99615.03;;;15.47;91.96
32298;BME280;18782;48.984;8.548;2022-09-09T05:06:42;99605.53;;;15.51;91.76
32298;BME280;18782;48.984;8.548;2022-09-09T05:09:11;99612.44;;;15.58;92.12
32298;BME280;18782;48.984;8.548;2022-09-09T05:11:39;99616.78;;;15.67;92.23
32298;BME280;18782;48.984;8.548;2022-09-09T05:14:14;99623.69;;;15.72;91.62
32298;BME280;18782;48.984;8.548;2022-09-09T05:16:41;99618.47;;;15.78;89.74
32298;BME280;18782;48.984;8.548;2022-09-09T05:19:12;99613.28;;;15.84;88.65
32298;BME280;18782;48.984;8.548;2022-09-09T05:21:44;99614.09;;;15.96;87.47
32298;BME280;18782;48.984;8.548;2022-09-09T05:24:13;99612.38;;;16.01;88.32
32298;BME280;18782;48.984;8.548;2022-09-09T05:26:42;99618.41;;;16.06;89.00
32298;BME280;18782;48.984;8.548;2022-09-09T05:29:10;99618.38;;;16.12;86.97
32298;BME280;18782;48.984;8.548;2022-09-09T05:31:38;99625.31;;;16.16;84.99
32298;BME280;18782;48.984;8.548;2022-09-09T05:34:12;99623.53;;;16.26;84.83
32298;BME280;18782;48.984;8.548;2022-09-09T05:36:40;99626.13;;;16.30;83.54
32298;BME280;18782;48.984;8.548;2022-09-09T05:39:08;99626.09;;;16.39;83.32
32298;BME280;18782;48.984;8.548;2022-09-09T05:41:38;99633.81;;;16.49;81.40
32298;BME280;18782;48.984;8.548;2022-09-09T05:44:06;99624.22;;;16.60;80.90
32298;BME280;18782;48.984;8.548;2022-09-09T05:46:37;99630.28;;;16.65;81.04
32298;BME280;18782;48.984;8.548;2022-09-09T05:49:05;99625.91;;;16.70;79.49
32298;BME280;18782;48.984;8.548;2022-09-09T05:51:36;99627.63;;;16.83;79.48
32298;BME280;18782;48.984;8.548;2022-09-09T05:54:08;99635.41;;;16.85;78.62
32298;BME280;18782;48.984;8.548;2022-09-09T05:56:41;99631.06;;;16.88;79.39
32298;BME280;18782;48.984;8.548;2022-09-09T05:59:09;99629.28;;;16.93;77.02
32298;BME280;18782;48.984;8.548;2022-09-09T06:01:38;99631.81;;;17.01;77.82
32298;BME280;18782;48.984;8.548;2022-09-09T06:04:13;99629.13;;;17.15;78.22
32298;BME280;18782;48.984;8.548;2022-09-09T06:06:42;99636.00;;;17.28;78.01
32298;BME280;18782;48.984;8.548;2022-09-09T06:09:14;99638.50;;;17.39;77.38
32298;BME280;18782;48.984;8.548;2022-09-09T06:11:42;99639.25;;;17.55;77.48
32298;BME280;18782;48.984;8.548;2022-09-09T06:14:11;99641.66;;;17.74;77.32
32298;BME280;18782;48.984;8.548;2022-09-09T06:16:39;99645.88;;;17.89;77.31
32298;BME280;18782;48.984;8.548;2022-09-09T06:19:16;99649.13;;;18.10;76.54
32298;BME280;18782;48.984;8.548;2022-09-09T06:21:45;99649.69;;;18.36;76.74
32298;BME280;18782;48.984;8.548;2022-09-09T06:24:14;99639.94;;;18.54;73.55
32298;BME280;18782;48.984;8.548;2022-09-09T06:26:43;99636.34;;;18.64;75.12
32298;BME280;18782;48.984;8.548;2022-09-09T06:29:16;99641.44;;;18.73;75.38
32298;BME280;18782;48.984;8.548;2022-09-09T06:31:44;99638.72;;;18.79;74.46
32298;BME280;18782;48.984;8.548;2022-09-09T06:34:15;99630.97;;;18.76;70.21
32298;BME280;18782;48.984;8.548;2022-09-09T06:36:48;99636.28;;;18.70;69.36
32298;BME280;18782;48.984;8.548;2022-09-09T06:39:16;99642.22;;;18.78;71.23
32298;BME280;18782;48.984;8.548;2022-09-09T06:41:44;99637.00;;;18.78;70.50
32298;BME280;18782;48.984;8.548;2022-09-09T06:44:37;99643.84;;;18.90;71.57
32298;BME280;18782;48.984;8.548;2022-09-09T06:47:09;99642.91;;;18.92;71.23
32298;BME280;18782;48.984;8.548;2022-09-09T06:49:39;99650.59;;;19.01;72.58
32298;BME280;18782;48.984;8.548;2022-09-09T06:52:11;99625.25;;;19.10;70.53
32298;BME280;18782;48.984;8.548;2022-09-09T06:54:40;99641.69;;;19.16;71.61
32298;BME280;18782;48.984;8.548;2022-09-09T06:57:08;99636.41;;;19.19;71.25
32298;BME280;18782;48.984;8.548;2022-09-09T06:59:56;99636.28;;;19.28;71.08
32298;BME280;18782;48.984;8.548;2022-09-09T07:02:24;99633.53;;;19.36;71.07
32298;BME280;18782;48.984;8.548;2022-09-09T07:04:52;99642.09;;;19.44;70.84
32298;BME280;18782;48.984;8.548;2022-09-09T07:07:21;99639.34;;;19.53;72.46
32298;BME280;18782;48.984;8.548;2022-09-09T07:09:51;99638.34;;;19.64;71.17
32298;BME280;18782;48.984;8.548;2022-09-09T07:12:19;99636.44;;;19.72;71.17
32298;BME280;18782;48.984;8.548;2022-09-09T07:14:53;99637.00;;;19.89;70.68
32298;BME280;18782;48.984;8.548;2022-09-09T07:17:21;99632.66;;;19.88;68.95
32298;BME280;18782;48.984;8.548;2022-09-09T07:19:49;99631.78;;;19.89;68.07
32298;BME280;18782;48.984;8.548;2022-09-09T07:22:16;99631.66;;;19.95;66.98
32298;BME280;18782;48.984;8.548;2022-09-09T07:24:47;99642.91;;;20.00;65.12
32298;BME280;18782;48.984;8.548;2022-09-09T07:27:15;99645.00;;;19.80;65.76
32298;BME280;18782;48.984;8.548;2022-09-09T07:29:43;99644.06;;;19.84;66.25
32298;BME280;18782;48.984;8.548;2022-09-09T07:32:12;99650.22;;;19.80;66.04
32298;BME280;18782;48.984;8.548;2022-09-09T07:34:41;99650.34;;;19.74;66.41
32298;BME280;18782;48.984;8.548;2022-09-09T07:37:09;99650.28;;;19.77;67.08
32298;BME280;18782;48.984;8.548;2022-09-09T07:39:40;99656.44;;;19.73;66.38
32298;BME280;18782;48.984;8.548;2022-09-09T07:42:09;99647.69;;;19.75;66.50
32298;BME280;18782;48.984;8.548;2022-09-09T07:44:38;99648.63;;;19.71;66.81
32298;BME280;18782;48.984;8.548;2022-09-09T07:47:14;99653.75;;;19.79;67.28
32298;BME280;18782;48.984;8.548;2022-09-09T07:49:45;99658.88;;;19.82;67.16
32298;BME280;18782;48.984;8.548;2022-09-09T07:52:16;99642.31;;;19.83;66.37
32298;BME280;18782;48.984;8.548;2022-09-09T07:54:51;99648.94;;;20.02;64.85
32298;BME280;18782;48.984;8.548;2022-09-09T07:57:20;99647.97;;;20.08;64.53
32298;BME280;18782;48.984;8.548;2022-09-09T07:59:49;99646.97;;;20.14;64.28
32298;BME280;18782;48.984;8.548;2022-09-09T08:02:17;99652.84;;;20.26;64.26
32298;BME280;18782;48.984;8.548;2022-09-09T08:04:44;99648.53;;;20.24;64.33
32298;BME280;18782;48.984;8.548;2022-09-09T08:07:15;99656.53;;;20.15;64.17
32298;BME280;18782;48.984;8.548;2022-09-09T08:09:50;99661.28;;;20.39;64.29
32298;BME280;18782;48.984;8.548;2022-09-09T08:12:23;99655.97;;;20.47;61.07
32298;BME280;18782;48.984;8.548;2022-09-09T08:14:51;99650.59;;;20.51;61.10
32298;BME280;18782;48.984;8.548;2022-09-09T08:17:23;99649.53;;;20.62;62.34
32298;BME280;18782;48.984;8.548;2022-09-09T08:19:51;99667.81;;;20.62;60.18
32298;BME280;18782;48.984;8.548;2022-09-09T08:22:24;99653.03;;;20.62;60.32
32298;BME280;18782;48.984;8.548;2022-09-09T08:24:53;99653.22;;;20.53;60.21
32298;BME280;18782;48.984;8.548;2022-09-09T08:27:21;99652.41;;;20.49;60.58
32298;BME280;18782;48.984;8.548;2022-09-09T08:29:51;99661.66;;;20.66;61.61
32298;BME280;18782;48.984;8.548;2022-09-09T08:32:19;99665.97;;;20.67;59.66
32298;BME280;18782;48.984;8.548;2022-09-09T08:34:48;99664.41;;;20.59;60.33
32298;BME280;18782;48.984;8.548;2022-09-09T08:37:21;99676.66;;;20.57;63.51
32298;BME280;18782;48.984;8.548;2022-09-09T08:39:49;99703.53;;;20.18;65.62
32298;BME280;18782;48.984;8.548;2022-09-09T08:42:38;99720.41;;;19.98;67.12
32298;BME280;18782;48.984;8.548;2022-09-09T08:45:21;99711.56;;;18.96;74.40
32298;BME280;18782;48.984;8.548;2022-09-09T08:48:00;99699.00;;;18.55;80.00
32298;BME280;18782;48.984;8.548;2022-09-09T08:50:34;99691.56;;;18.19;80.58
32298;BME280;18782;48.984;8.548;2022-09-09T08:53:14;99687.78;;;18.48;81.93
32298;BME280;18782;48.984;8.548;2022-09-09T08:55:47;99698.06;;;18.60;82.24
32298;BME280;18782;48.984;8.548;2022-09-09T08:58:21;99691.06;;;18.65;82.79
32298;BME280;18782;48.984;8.548;2022-09-09T09:01:03;99695.03;;;18.95;82.98
32298;BME280;18782;48.984;8.548;2022-09-09T09:03:48;99697.31;;;19.18;78.08
32298;BME280;18782;48.984;8.548;2022-09-09T09:06:30;99692.13;;;19.17;79.93
32298;BME280;18782;48.984;8.548;2022-09-09T09:09:10;99698.84;;;19.33;80.21
32298;BME280;18782;48.984;8.548;2022-09-09T09:11:44;99690.56;;;19.64;80.44
32298;BME280;18782;48.984;8.548;2022-09-09T09:14:18;99699.06;;;19.75;78.62
32298;BME280;18782;48.984;8.548;2022-09-09T09:16:55;99686.97;;;19.68;77.65
32298;BME280;18782;48.984;8.548;2022-09-09T09:19:27;99697.69;;;19.51;77.82
32298;BME280;18782;48.984;8.548;2022-09-09T09:22:00;99690.59;;;19.61;77.52
32298;BME280;18782;48.984;8.548;2022-09-09T09:24:39;99685.34;;;19.64;78.19
32298;BME280;18782;48.984;8.548;2022-09-09T09:27:14;99676.47;;;19.74;76.54
32298;BME280;18782;48.984;8.548;2022-09-09T09:29:49;99669.72;;;20.10;77.34
32298;BME280;18782;48.984;8.548;2022-09-09T09:32:42;99661.16;;;20.45;76.72
32298;BME280;18782;48.984;8.548;2022-09-09T09:35:12;99677.28;;;20.69;76.70
32298;BME280;18782;48.984;8.548;2022-09-09T09:37:42;99681.13;;;20.52;69.84
32298;BME280;18782;48.984;8.548;2022-09-09T09:40:30;99691.19;;;20.26;68.04
32298;BME280;18782;48.984;8.548;2022-09-09T09:43:01;99683.81;;;20.01;69.30
32298;BME280;18782;48.984;8.548;2022-09-09T09:45:40;99681.34;;;19.92;70.05
32298;BME280;18782;48.984;8.548;2022-09-09T09:48:32;99683.25;;;19.84;71.33
32298;BME280;18782;48.984;8.548;2022-09-09T09:51:04;99680.38;;;19.98;72.33
32298;BME280;18782;48.984;8.548;2022-09-09T09:53:35;99685.88;;;19.84;70.65
32298;BME280;18782;48.984;8.548;2022-09-09T09:56:05;99676.91;;;19.97;70.48
32298;BME280;18782;48.984;8.548;2022-09-09T09:58:47;99682.97;;;19.99;71.01
32298;BME280;18782;48.984;8.548;2022-09-09T10:01:20;99668.94;;;20.03;68.49
32298;BME280;18782;48.984;8.548;2022-09-09T10:03:53;99679.84;;;20.25;69.28
32298;BME280;18782;48.984;8.548;2022-09-09T10:06:30;99677.22;;;20.27;69.84
32298;BME280;18782;48.984;8.548;2022-09-09T10:08:59;99683.81;;;20.46;69.64
32298;BME280;18782;48.984;8.548;2022-09-09T10:11:41;99679.09;;;20.65;67.27
32298;BME280;18782;48.984;8.548;2022-09-09T10:14:17;99681.19;;;20.48;64.13
32298;BME280;18782;48.984;8.548;2022-09-09T10:17:00;99679.47;;;20.45;64.36
32298;BME280;18782;48.984;8.548;2022-09-09T10:19:32;99678.41;;;20.55;64.14
32298;BME280;18782;48.984;8.548;2022-09-09T10:22:21;99671.06;;;20.74;64.48
32298;BME280;18782;48.984;8.548;2022-09-09T10:25:20;99678.66;;;21.25;62.23
32298;BME280;18782;48.984;8.548;2022-09-09T10:28:11;99661.69;;;21.04;61.99
32298;BME280;18782;48.984;8.548;2022-09-09T10:30:54;99674.59;;;21.49;61.90
32298;BME280;18782;48.984;8.548;2022-09-09T10:33:31;99668.59;;;21.44;60.62
32298;BME280;18782;48.984;8.548;2022-09-09T10:36:08;99663.94;;;21.57;59.45
32298;BME280;18782;48.984;8.548;2022-09-09T10:38:41;99659.56;;;21.57;61.22
32298;BME280;18782;48.984;8.548;2022-09-09T10:41:18;99661.41;;;21.86;60.64
32298;BME280;18782;48.984;8.548;2022-09-09T10:44:13;99670.84;;;21.59;59.03
32298;BME280;18782;48.984;8.548;2022-09-09T10:47:00;99668.44;;;21.52;59.29
32298;BME280;18782;48.984;8.548;2022-09-09T10:49:51;99672.91;;;21.08;61.50
32298;BME280;18782;48.984;8.548;2022-09-09T10:52:30;99673.56;;;21.18;61.61
32298;BME280;18782;48.984;8.548;2022-09-09T10:55:07;99674.91;;;21.37;61.79
32298;BME280;18782;48.984;8.548;2022-09-09T10:57:39;99681.69;;;21.44;62.41
32298;BME280;18782;48.984;8.548;2022-09-09T11:00:17;99678.44;;;21.72;60.62
32298;BME280;18782;48.984;8.548;2022-09-09T11:02:48;99677.53;;;21.73;60.93
32298;BME280;18782;48.984;8.548;2022-09-09T11:05:20;99678.84;;;21.89;58.31
32298;BME280;18782;48.984;8.548;2022-09-09T11:07:53;99684.38;;;21.77;57.62
32298;BME280;18782;48.984;8.548;2022-09-09T11:10:26;99682.72;;;22.07;58.05
32298;BME280;18782;48.984;8.548;2022-09-09T11:13:00;99678.13;;;22.17;56.17
32298;BME280;18782;48.984;8.548;2022-09-09T11:15:35;99677.78;;;22.29;55.63
32298;BME280;18782;48.984;8.548;2022-09-09T11:18:11;99673.06;;;22.42;54.62
32298;BME280;18782;48.984;8.548;2022-09-09T11:20:42;99672.72;;;22.23;53.86
32298;BME280;18782;48.984;8.548;2022-09-09T11:23:14;99673.56;;;22.25;53.62
32298;BME280;18782;48.984;8.548;2022-09-09T11:25:48;99673.38;;;21.98;55.02
32298;BME280;18782;48.984;8.548;2022-09-09T11:28:28;99678.31;;;22.10;55.34
32298;BME280;18782;48.984;8.548;2022-09-09T11:31:12;99668.25;;;21.92;55.88
32298;BME280;18782;48.984;8.548;2022-09-09T11:34:19;99687.59;;;21.88;55.12
32298;BME280;18782;48.984;8.548;2022-09-09T11:37:12;99659.53;;;21.93;55.51
32298;BME280;18782;48.984;8.548;2022-09-09T11:39:56;99654.59;;;22.46;54.70
32298;BME280;18782;48.984;8.548;2022-09-09T11:42:26;99654.59;;;23.05;54.40
32298;BME280;18782;48.984;8.548;2022-09-09T11:44:54;99656.78;;;23.19;51.60
32298;BME280;18782;48.984;8.548;2022-09-09T11:47:24;99638.34;;;23.74;51.63
32298;BME280;18782;48.984;8.548;2022-09-09T11:50:08;99635.50;;;24.53;49.56
32298;BME280;18782;48.984;8.548;2022-09-09T11:52:37;99622.78;;;25.11;47.82
32298;BME280;18782;48.984;8.548;2022-09-09T11:55:11;99621.03;;;25.10;45.40
32298;BME280;18782;48.984;8.548;2022-09-09T11:57:39;99622.25;;;25.02;45.93
32298;BME280;18782;48.984;8.548;2022-09-09T12:00:31;99622.19;;;25.67;46.78
32298;BME280;18782;48.984;8.548;2022-09-09T12:03:00;99601.31;;;25.20;43.98
32298;BME280;18782;48.984;8.548;2022-09-09T12:05:36;99601.75;;;25.52;43.50
32298;BME280;18782;48.984;8.548;2022-09-09T12:08:05;99614.78;;;24.91;43.79
32298;BME280;18782;48.984;8.548;2022-09-09T12:10:37;99622.25;;;24.80;42.82
32298;BME280;18782;48.984;8.548;2022-09-09T12:13:15;99623.72;;;24.63;43.99
32298;BME280;18782;48.984;8.548;2022-09-09T12:15:47;99631.75;;;24.60;45.12
32298;BME280;18782;48.984;8.548;2022-09-09T12:18:21;99612.25;;;25.11;44.05
32298;BME280;18782;48.984;8.548;2022-09-09T12:20:55;99616.38;;;25.39;42.53
32298;BME280;18782;48.984;8.548;2022-09-09T12:23:40;99610.38;;;25.13;43.73
32298;BME280;18782;48.984;8.548;2022-09-09T12:26:24;99617.28;;;24.94;44.73
32298;BME280;18782;48.984;8.548;2022-09-09T12:28:59;99617.38;;;24.69;44.66
32298;BME280;18782;48.984;8.548;2022-09-09T12:31:34;99608.41;;;24.51;44.95
32298;BME280;18782;48.984;8.548;2022-09-09T12:34:14;99611.81;;;24.30;44.05
32298;BME280;18782;48.984;8.548;2022-09-09T12:36:44;99601.28;;;24.77;43.74
32298;BME280;18782;48.984;8.548;2022-09-09T12:39:26;99588.97;;;24.55;44.12
32298;BME280;18782;48.984;8.548;2022-09-09T12:41:56;99598.41;;;24.37;44.31
32298;BME280;18782;48.984;8.548;2022-09-09T12:44:25;99603.84;;;25.44;43.30
32298;BME280;18782;48.984;8.548;2022-09-09T12:46:56;99608.53;;;26.58;41.57
32298;BME280;18782;48.984;8.548;2022-09-09T12:49:31;99610.94;;;26.44;40.08
32298;BME280;18782;48.984;8.548;2022-09-09T12:52:02;99607.91;;;25.93;40.55
32298;BME280;18782;48.984;8.548;2022-09-09T12:54:33;99612.44;;;25.05;43.54
32298;BME280;18782;48.984;8.548;2022-09-09T12:57:04;99617.97;;;24.54;44.10
32298;BME280;18782;48.984;8.548;2022-09-09T12:59:37;99623.50;;;23.73;46.34
32298;BME280;18782;48.984;8.548;2022-09-09T13:02:16;99647.56;;;23.34;47.55
32298;BME280;18782;48.984;8.548;2022-09-09T13:04:45;99642.94;;;22.56;48.37
32298;BME280;18782;48.984;8.548;2022-09-09T13:07:13;99618.34;;;21.97;50.39
32298;BME280;18782;48.984;8.548;2022-09-09T13:09:43;99619.72;;;21.45;53.30
32298;BME280;18782;48.984;8.548;2022-09-09T13:12:14;99607.94;;;21.62;53.50
32298;BME280;18782;48.984;8.548;2022-09-09T13:14:44;99600.34;;;22.17;53.08
32298;BME280;18782;48.984;8.548;2022-09-09T13:17:20;99595.78;;;23.89;51.36
32298;BME280;18782;48.984;8.548;2022-09-09T13:19:49;99596.97;;;25.19;48.29
32298;BME280;18782;48.984;8.548;2022-09-09T13:22:21;99584.81;;;26.75;43.48
32298;BME280;18782;48.984;8.548;2022-09-09T13:24:59;99574.16;;;26.96;43.88
32298;BME280;18782;48.984;8.548;2022-09-09T13:27:32;99579.78;;;26.52;44.60
32298;BME280;18782;48.984;8.548;2022-09-09T13:30:00;99614.19;;;25.91;45.70
32298;BME280;18782;48.984;8.548;2022-09-09T13:32:28;99609.13;;;23.83;49.93